Terminal Aerodrome Forecast
Issued by NWS

Home | Current Version | Previous Version | Text Only | Print | Product List | Glossary On
Versions: 1 2 3 4 5 6 7 8 9 10 11 12 13 14 15 16 17 18 19 20 21 22 23 24 25 26
000
FTUS46 KOTX 260005 AAA
TAFCOE
TAF AMD
KCOE 260005Z 2600/2624 23020G28KT P6SM -SHRASN SCT025 BKN035 BKN050
     FM260100 23017G24KT P6SM VCSH SCT020 OVC060
     FM260800 22006KT P6SM BKN150
     FM261600 23007KT P6SM SCT250=

USA.gov is the U.S. government's official web portal to all federal, state and local government web resources and services.